NORTHEAST SUFFOLK  -  Rip Current Statement Rip Current Statement        NORTHERN NASSAU  -  Rip Current Statement Rip Current Statement        NORTHERN QUEENS  -  Rip Current Statement Rip Current Statement     Air Quality Alert Air Quality Alert        NORTHWEST SUFFOLK  -  Rip Current Statement Rip Current Statement        SOUTHEAST SUFFOLK  -  Rip Current Statement Rip Current Statement        SOUTHERN NASSAU  -  Rip Current Statement Rip Current Statement        SOUTHERN QUEENS  -  Rip Current Statement Rip Current Statement     Air Quality Alert Air Quality Alert        SOUTHWEST SUFFOLK  -  Rip Current Statement Rip Current Statement      

Active alerts

Northern Queens
  Details for Northern Queens Rip Current Statement  +1 additional alert
Southern Queens
  Details for Southern Queens Rip Current Statement  +1 additional alert
Northern Nassau
  Details for Northern Nassau Rip Current Statement
Southern Nassau
  Details for Southern Nassau Rip Current Statement
Northwest Suffolk
  Details for Northwest Suffolk Rip Current Statement
Southwest Suffolk
  Details for Southwest Suffolk Rip Current Statement
Northeast Suffolk
  Details for Northeast Suffolk Rip Current Statement
Southeast Suffolk
  Details for Southeast Suffolk Rip Current Statement


WXM80 ListenWXM80 Stop

You find our weather info also at:

UK Metoffice

WeatherCloud

Weather Underground

Northeastern Weather Network

AWEKAS

Citizen Weather Observer Program (CWOP)

HAMweather, WeatherForYou, PWS Weather


Weather Underground History page Text

Daily Summary for January 26, 2016 Units:  English    Metric   Both
« Previous Day
Next Day »
Daily Weekly Monthly Yearly Custom
  High: Low: Average:
Temperature: 48.8 °F 26.5 °F 40.5 °F
Dew Point: 44.2 °F 25.8 °F 36.9 °F
Humidity: 98 % 71 % 88 %
Wind Speed: 9.2 mph 0.0 mph 3.6 mph
Wind Gust: 16.1 mph - -
Wind:- - SSW
Pressure: 30.21 in 29.90 in -
Precipitation: 0.00 in    
Historical Graphs
 
 
Tabular Data for January 26, 2016
Time Temperature Dew Point Pressure Wind Wind Speed Wind Gust Humidity Rainfall Rate (Hourly)
00:03 26.7 °F 26.0 °F 30.21 in Calm     97 % 0.00 in
00:08 26.7 °F 26.0 °F 30.21 in Calm     97 % 0.00 in
00:18 26.6 °F 25.9 °F 30.20 in Calm     97 % 0.00 in
00:24 26.5 °F 25.8 °F 30.20 in Calm     97 % 0.00 in
00:29 26.5 °F 25.8 °F 30.20 in Calm     97 % 0.00 in
00:34 26.5 °F 25.8 °F 30.20 in South 0.5 mph 1.2 mph 97 % 0.00 in
00:39 26.5 °F 25.8 °F 30.20 in South 1.2 mph 2.3 mph 97 % 0.00 in
00:44 26.6 °F 25.9 °F 30.20 in South 1.7 mph 2.3 mph 97 % 0.00 in
00:49 26.7 °F 26.0 °F 30.19 in South 1.1 mph 2.0 mph 97 % 0.00 in
00:54 26.8 °F 26.1 °F 30.19 in South 0.9 mph 2.3 mph 97 % 0.00 in
00:59 27.0 °F 26.3 °F 30.19 in South 1.9 mph 3.5 mph 97 % 0.00 in
01:04 27.3 °F 26.8 °F 30.18 in South 1.6 mph 2.3 mph 98 % 0.00 in
01:09 27.5 °F 26.8 °F 30.18 in South 1.8 mph 3.5 mph 97 % 0.00 in
01:20 28.1 °F 27.6 °F 30.18 in South 2.8 mph 3.5 mph 98 % 0.00 in
01:25 28.5 °F 28.0 °F 30.18 in South 2.2 mph 3.5 mph 98 % 0.00 in
01:30 28.8 °F 28.3 °F 30.18 in South 1.5 mph 3.5 mph 98 % 0.00 in
01:35 29.0 °F 28.5 °F 30.18 in South 1.5 mph 2.3 mph 98 % 0.00 in
01:40 29.3 °F 28.8 °F 30.18 in South 1.9 mph 3.5 mph 98 % 0.00 in
01:45 29.5 °F 29.0 °F 30.19 in South 1.5 mph 2.3 mph 98 % 0.00 in
01:55 29.8 °F 29.3 °F 30.19 in South 0.8 mph 2.3 mph 98 % 0.00 in
02:00 29.9 °F 29.4 °F 30.18 in SSW 1.6 mph 2.3 mph 98 % 0.00 in
02:06 30.2 °F 29.7 °F 30.18 in SSW 1.7 mph 3.5 mph 98 % 0.00 in
02:11 30.3 °F 29.8 °F 30.18 in SSW 2.6 mph 4.6 mph 98 % 0.00 in
02:16 30.6 °F 30.1 °F 30.18 in South 2.3 mph 3.5 mph 98 % 0.00 in
02:21 30.8 °F 30.3 °F 30.18 in South 2.2 mph 3.5 mph 98 % 0.00 in
02:26 31.0 °F 30.5 °F 30.18 in SW 1.4 mph 4.0 mph 98 % 0.00 in
02:36 31.4 °F 30.9 °F 30.17 in SSW 0.9 mph 3.5 mph 98 % 0.00 in
02:41 31.5 °F 31.0 °F 30.17 in SSW 0.2 mph 2.3 mph 98 % 0.00 in
02:46 31.7 °F 31.2 °F 30.16 in SSW 0.4 mph 1.2 mph 98 % 0.00 in
02:51 31.8 °F 31.3 °F 30.16 in SW 1.3 mph 2.3 mph 98 % 0.00 in
02:57 31.9 °F 31.4 °F 30.16 in SW 1.0 mph 2.3 mph 98 % 0.00 in
03:02 32.0 °F 31.5 °F 30.15 in SW 1.5 mph 3.5 mph 98 % 0.00 in
03:07 32.0 °F 31.5 °F 30.15 in South 1.4 mph 2.3 mph 98 % 0.00 in
03:12 32.1 °F 31.6 °F 30.14 in SSW 2.2 mph 3.5 mph 98 % 0.00 in
03:17 32.2 °F 31.7 °F 30.13 in SSW 2.3 mph 3.5 mph 98 % 0.00 in
03:22 32.2 °F 31.7 °F 30.13 in SSW 1.7 mph 3.5 mph 98 % 0.00 in
03:27 32.3 °F 31.8 °F 30.13 in SSW 1.3 mph 3.5 mph 98 % 0.00 in
03:32 32.3 °F 31.8 °F 30.13 in SSW 1.8 mph 3.0 mph 98 % 0.00 in
03:37 32.4 °F 31.9 °F 30.13 in SSW 0.5 mph 2.3 mph 98 % 0.00 in
03:42 32.4 °F 31.9 °F 30.13 in SSW 1.2 mph 5.8 mph 98 % 0.00 in
03:53 32.5 °F 32.0 °F 30.12 in SSW 0.3 mph 1.2 mph 98 % 0.00 in
03:58 32.5 °F 32.0 °F 30.13 in WSW 0.4 mph 5.8 mph 98 % 0.00 in
04:03 32.6 °F 32.1 °F 30.12 in SSW 1.5 mph 3.5 mph 98 % 0.00 in
04:08 32.6 °F 32.1 °F 30.13 in SSW 3.5 mph 6.9 mph 98 % 0.00 in
04:13 32.6 °F 32.1 °F 30.13 in SW 2.2 mph 6.9 mph 98 % 0.00 in
04:18 32.7 °F 32.2 °F 30.13 in SW 2.4 mph 6.0 mph 98 % 0.00 in
04:23 32.8 °F 32.3 °F 30.13 in SSW 4.5 mph 6.9 mph 98 % 0.00 in
04:28 32.8 °F 32.3 °F 30.13 in WSW 3.3 mph 5.8 mph 98 % 0.00 in
04:39 32.8 °F 32.3 °F 30.12 in SSW 1.9 mph 3.5 mph 98 % 0.00 in
04:44 32.8 °F 32.3 °F 30.12 in South 2.4 mph 4.6 mph 98 % 0.00 in
04:49 32.9 °F 32.4 °F 30.12 in SSW 1.5 mph 3.5 mph 98 % 0.00 in
04:54 32.9 °F 32.4 °F 30.12 in South 1.2 mph 2.3 mph 98 % 0.00 in
04:59 32.9 °F 32.4 °F 30.12 in South 1.8 mph 3.5 mph 98 % 0.00 in
05:09 32.9 °F 32.4 °F 30.12 in South 2.0 mph 3.5 mph 98 % 0.00 in
05:14 32.9 °F 32.4 °F 30.12 in South 0.1 mph 3.5 mph 98 % 0.00 in
05:19 32.9 °F 32.4 °F 30.11 in South 1.4 mph 3.5 mph 98 % 0.00 in
05:24 33.0 °F 32.5 °F 30.12 in South 1.9 mph 4.6 mph 98 % 0.00 in
05:30 33.0 °F 32.5 °F 30.11 in South 0.7 mph 3.5 mph 98 % 0.00 in
05:35 32.9 °F 32.4 °F 30.11 in South 1.2 mph 4.0 mph 98 % 0.00 in
05:40 33.0 °F 32.5 °F 30.10 in South 1.8 mph 5.8 mph 98 % 0.00 in
05:45 33.2 °F 32.7 °F 30.10 in South 2.1 mph 4.0 mph 98 % 0.00 in
05:50 33.3 °F 32.8 °F 30.09 in South 2.4 mph 3.5 mph 98 % 0.00 in
05:55 33.3 °F 32.8 °F 30.09 in South 3.1 mph 4.6 mph 98 % 0.00 in
06:00 33.3 °F 32.8 °F 30.09 in South 2.3 mph 3.5 mph 98 % 0.00 in
06:05 33.4 °F 32.9 °F 30.09 in South 2.8 mph 4.6 mph 98 % 0.00 in
06:10 33.5 °F 33.0 °F 30.09 in South 3.4 mph 4.6 mph 98 % 0.00 in
06:15 33.6 °F 33.1 °F 30.09 in South 2.0 mph 6.9 mph 98 % 0.00 in
06:21 33.6 °F 33.1 °F 30.09 in SSW 2.2 mph 4.6 mph 98 % 0.00 in
06:26 33.7 °F 33.2 °F 30.09 in SSW 3.8 mph 9.2 mph 98 % 0.00 in
06:31 33.8 °F 33.3 °F 30.09 in SSW 3.5 mph 5.8 mph 98 % 0.00 in
06:36 33.8 °F 33.3 °F 30.09 in SSW 2.2 mph 4.6 mph 98 % 0.00 in
06:41 33.9 °F 33.4 °F 30.09 in South 3.7 mph 8.1 mph 98 % 0.00 in
06:46 34.0 °F 33.5 °F 30.09 in SW 3.5 mph 6.0 mph 98 % 0.00 in
06:51 34.2 °F 33.7 °F 30.09 in South 4.2 mph 6.9 mph 98 % 0.00 in
06:56 34.3 °F 33.8 °F 30.09 in SSW 4.5 mph 11.5 mph 98 % 0.00 in
07:01 34.6 °F 34.1 °F 30.08 in South 3.9 mph 6.9 mph 98 % 0.00 in
07:06 34.6 °F 33.8 °F 30.08 in South 2.9 mph 6.9 mph 97 % 0.00 in
07:12 34.7 °F 34.2 °F 30.08 in SSW 3.3 mph 11.5 mph 98 % 0.00 in
07:17 34.8 °F 34.0 °F 30.08 in South 3.5 mph 5.8 mph 97 % 0.00 in
07:22 35.1 °F 34.3 °F 30.07 in South 6.8 mph 11.5 mph 97 % 0.00 in
07:27 35.2 °F 34.4 °F 30.08 in SSW 4.9 mph 9.2 mph 97 % 0.00 in
07:32 35.3 °F 34.5 °F 30.07 in SSW 5.1 mph 9.2 mph 97 % 0.00 in
07:37 35.6 °F 34.8 °F 30.06 in South 4.8 mph 6.9 mph 97 % 0.00 in
07:42 35.7 °F 34.9 °F 30.06 in South 4.8 mph 9.2 mph 97 % 0.00 in
07:47 36.2 °F 35.4 °F 30.06 in SSW 5.5 mph 10.4 mph 97 % 0.00 in
07:57 36.6 °F 35.8 °F 30.06 in South 6.1 mph 11.5 mph 97 % 0.00 in
08:03 36.7 °F 35.9 °F 30.06 in SSW 2.0 mph 4.6 mph 97 % 0.00 in
08:08 36.8 °F 36.0 °F 30.06 in SW 2.4 mph 5.0 mph 97 % 0.00 in
08:13 37.2 °F 36.4 °F 30.05 in SW 5.0 mph 8.1 mph 97 % 0.00 in
08:18 37.4 °F 36.6 °F 30.05 in South 4.4 mph 8.1 mph 97 % 0.00 in
08:23 37.7 °F 36.9 °F 30.05 in South 5.4 mph 8.1 mph 97 % 0.00 in
08:28 38.0 °F 37.2 °F 30.06 in WSW 9.2 mph 15.0 mph 97 % 0.00 in
08:33 38.4 °F 37.6 °F 30.06 in SSW 4.8 mph 11.5 mph 97 % 0.00 in
08:38 38.7 °F 37.9 °F 30.06 in SSW 5.0 mph 11.5 mph 97 % 0.00 in
08:43 39.1 °F 38.6 °F 30.06 in SW 2.4 mph 7.0 mph 98 % 0.00 in
08:48 39.3 °F 38.8 °F 30.06 in SW 8.6 mph 10.0 mph 98 % 0.00 in
08:54 39.8 °F 39.3 °F 30.07 in SSW 5.1 mph 11.5 mph 98 % 0.00 in
08:59 40.0 °F 39.5 °F 30.07 in SSW 7.9 mph 15.0 mph 98 % 0.00 in
09:04 40.3 °F 39.8 °F 30.06 in SW 6.1 mph 12.7 mph 98 % 0.00 in
09:09 40.5 °F 40.0 °F 30.07 in South 6.5 mph 11.5 mph 98 % 0.00 in
09:14 40.9 °F 40.4 °F 30.07 in WSW 4.7 mph 10.4 mph 98 % 0.00 in
09:19 41.1 °F 40.6 °F 30.07 in SW 5.3 mph 13.0 mph 98 % 0.00 in
09:24 41.4 °F 40.9 °F 30.07 in South 5.2 mph 11.5 mph 98 % 0.00 in
09:29 41.6 °F 41.1 °F 30.08 in WSW 6.4 mph 9.2 mph 98 % 0.00 in
09:34 42.0 °F 41.5 °F 30.07 in SSW 6.4 mph 13.8 mph 98 % 0.00 in
09:39 42.3 °F 41.8 °F 30.06 in WSW 4.9 mph 8.1 mph 98 % 0.00 in
09:45 42.7 °F 42.2 °F 30.06 in South 5.8 mph 8.1 mph 98 % 0.00 in
09:50 43.2 °F 42.7 °F 30.06 in SW 6.3 mph 11.5 mph 98 % 0.00 in
09:55 43.4 °F 42.9 °F 30.05 in SW 7.9 mph 16.1 mph 98 % 0.00 in
10:00 43.5 °F 42.7 °F 30.05 in SW 3.5 mph 6.9 mph 97 % 0.00 in
10:05 43.4 °F 42.6 °F 30.04 in SSW 8.0 mph 12.7 mph 97 % 0.00 in
10:10 43.3 °F 42.5 °F 30.04 in SW 5.2 mph 9.2 mph 97 % 0.00 in
10:15 43.3 °F 42.5 °F 30.04 in SSW 3.6 mph 5.8 mph 97 % 0.00 in
10:20 43.6 °F 42.8 °F 30.03 in SSW 5.0 mph 9.2 mph 97 % 0.00 in
10:30 44.1 °F 43.3 °F 30.03 in SSW 8.2 mph 12.7 mph 97 % 0.00 in
10:36 44.2 °F 43.4 °F 30.02 in WSW 7.2 mph 10.4 mph 97 % 0.00 in
10:41 44.2 °F 43.1 °F 30.02 in SSW 7.7 mph 13.8 mph 96 % 0.00 in
10:46 44.3 °F 43.2 °F 30.02 in SSE 2.6 mph 5.8 mph 96 % 0.00 in
10:51 44.2 °F 43.1 °F 30.00 in SSW 5.5 mph 9.2 mph 96 % 0.00 in
10:56 44.1 °F 43.0 °F 30.00 in SSW 3.9 mph 8.1 mph 96 % 0.00 in
11:01 44.1 °F 43.0 °F 30.00 in South 5.4 mph 8.1 mph 96 % 0.00 in
11:06 44.0 °F 43.2 °F 30.00 in South 4.8 mph 7.0 mph 97 % 0.00 in
11:11 43.9 °F 42.8 °F 30.02 in WSW 6.5 mph 13.0 mph 96 % 0.00 in
11:16 44.0 °F 42.9 °F 30.03 in SSW 3.3 mph 11.5 mph 96 % 0.00 in
11:21 44.2 °F 43.1 °F 30.02 in WNW 3.3 mph 10.4 mph 96 % 0.00 in
11:27 44.5 °F 43.4 °F 30.01 in SSW 8.5 mph 13.8 mph 96 % 0.00 in
11:32 44.7 °F 43.4 °F 30.01 in South 7.4 mph 11.5 mph 95 % 0.00 in
11:37 44.8 °F 43.5 °F 30.00 in WSW 6.9 mph 11.5 mph 95 % 0.00 in
11:42 45.0 °F 43.7 °F 30.00 in SSW 7.3 mph 9.2 mph 95 % 0.00 in
11:47 45.4 °F 44.1 °F 30.00 in South 4.0 mph 10.4 mph 95 % 0.00 in
11:57 45.8 °F 44.2 °F 29.99 in SW 7.1 mph 11.5 mph 94 % 0.00 in
12:02 46.0 °F 44.1 °F 29.99 in WSW 6.2 mph 10.4 mph 93 % 0.00 in
12:07 46.1 °F 43.9 °F 29.98 in South 5.8 mph 12.7 mph 92 % 0.00 in
12:13 46.1 °F 44.2 °F 29.98 in WSW 1.3 mph 8.1 mph 93 % 0.00 in
12:18 46.1 °F 44.2 °F 29.98 in WSW 8.2 mph 12.7 mph 93 % 0.00 in
12:23 46.1 °F 43.6 °F 29.97 in WSW 6.3 mph 11.5 mph 91 % 0.00 in
12:38 46.3 °F 43.8 °F 29.96 in WSW 4.3 mph 9.0 mph 91 % 0.00 in
12:43 46.3 °F 43.2 °F 29.96 in SW 7.7 mph 10.4 mph 89 % 0.00 in
12:48 46.4 °F 43.3 °F 29.96 in SW 2.6 mph 6.0 mph 89 % 0.00 in
12:53 46.6 °F 43.5 °F 29.95 in WSW 3.9 mph 8.1 mph 89 % 0.00 in
13:04 46.9 °F 42.9 °F 29.95 in SW 8.2 mph 11.5 mph 86 % 0.00 in
13:09 47.1 °F 42.5 °F 29.94 in South 3.5 mph 9.2 mph 84 % 0.00 in
13:14 47.3 °F 43.0 °F 29.94 in South 2.2 mph 4.0 mph 85 % 0.00 in
13:24 48.0 °F 43.1 °F 29.93 in SSW 2.7 mph 3.5 mph 83 % 0.00 in
13:29 48.4 °F 42.8 °F 29.93 in SW 1.9 mph 3.5 mph 81 % 0.00 in
13:34 48.7 °F 41.8 °F 29.93 in SSW 5.2 mph 10.4 mph 77 % 0.00 in
13:39 48.8 °F 41.2 °F 29.94 in South 7.0 mph 13.8 mph 75 % 0.00 in
13:44 48.7 °F 41.5 °F 29.94 in WSW 5.0 mph 5.0 mph 76 % 0.00 in
13:49 48.7 °F 40.8 °F 29.93 in SW 7.5 mph 11.0 mph 74 % 0.00 in
13:55 48.7 °F 40.8 °F 29.92 in SSW 6.7 mph 10.0 mph 74 % 0.00 in
14:00 48.6 °F 40.3 °F 29.92 in SSW 4.1 mph 5.8 mph 73 % 0.00 in
14:10 48.6 °F 40.0 °F 29.91 in South 1.9 mph 6.9 mph 72 % 0.00 in
14:15 48.6 °F 40.7 °F 29.91 in South 2.3 mph 4.6 mph 74 % 0.00 in
14:20 48.6 °F 40.7 °F 29.91 in SSW 3.0 mph 4.0 mph 74 % 0.00 in
14:25 48.6 °F 40.3 °F 29.91 in South 3.6 mph 5.8 mph 73 % 0.00 in
14:30 48.6 °F 41.0 °F 29.91 in SSE 1.8 mph 3.5 mph 75 % 0.00 in
14:40 48.5 °F 39.9 °F 29.91 in South 3.0 mph 6.9 mph 72 % 0.00 in
14:46 48.5 °F 39.9 °F 29.91 in South 4.1 mph 6.9 mph 72 % 0.00 in
14:51 48.4 °F 39.8 °F 29.91 in SSW 4.2 mph 7.0 mph 72 % 0.00 in
14:56 48.3 °F 40.4 °F 29.90 in WSW 2.9 mph 6.9 mph 74 % 0.00 in
15:01 48.1 °F 39.5 °F 29.90 in South 3.4 mph 8.1 mph 72 % 0.00 in
15:06 48.0 °F 39.8 °F 29.90 in SSW 4.9 mph 8.1 mph 73 % 0.00 in
15:11 48.0 °F 40.5 °F 29.91 in SW 3.8 mph 5.0 mph 75 % 0.00 in
15:16 47.9 °F 40.0 °F 29.90 in SW 2.4 mph 3.5 mph 74 % 0.00 in
15:21 47.9 °F 40.4 °F 29.90 in SW 1.9 mph 4.6 mph 75 % 0.00 in
15:26 47.8 °F 39.9 °F 29.90 in SW 2.8 mph 6.9 mph 74 % 0.00 in
15:31 47.8 °F 39.9 °F 29.91 in SW 4.3 mph 6.9 mph 74 % 0.00 in
15:37 47.7 °F 40.2 °F 29.90 in South 4.2 mph 8.1 mph 75 % 0.00 in
15:42 47.6 °F 40.4 °F 29.91 in SW 6.0 mph 8.1 mph 76 % 0.00 in
15:47 47.6 °F 40.7 °F 29.91 in SW 1.9 mph 4.0 mph 77 % 0.00 in
15:52 47.5 °F 40.6 °F 29.92 in SSW 2.1 mph 5.8 mph 77 % 0.00 in
15:57 47.4 °F 40.6 °F 29.92 in WSW 3.2 mph 6.0 mph 77 % 0.00 in
16:02 47.3 °F 41.1 °F 29.92 in WSW 2.9 mph 5.0 mph 79 % 0.00 in
16:07 47.2 °F 40.7 °F 29.91 in SSW 2.0 mph 3.5 mph 78 % 0.00 in
16:12 47.0 °F 40.5 °F 29.91 in SSW 3.1 mph 4.6 mph 78 % 0.00 in
16:17 46.9 °F 40.7 °F 29.91 in South 0.6 mph 3.0 mph 79 % 0.00 in
16:22 46.8 °F 40.6 °F 29.91 in SSW 1.9 mph 3.5 mph 79 % 0.00 in
16:28 46.6 °F 40.4 °F 29.92 in SSW 3.3 mph 4.6 mph 79 % 0.00 in
16:33 46.5 °F 41.0 °F 29.91 in SSW 3.0 mph 4.6 mph 81 % 0.00 in
16:38 46.3 °F 40.5 °F 29.91 in SW 1.6 mph 4.0 mph 80 % 0.00 in
16:43 46.1 °F 40.6 °F 29.91 in SW 1.9 mph 3.5 mph 81 % 0.00 in
16:48 45.9 °F 40.4 °F 29.92 in South 1.4 mph 3.5 mph 81 % 0.00 in
16:53 45.8 °F 40.3 °F 29.92 in SSW 3.1 mph 6.0 mph 81 % 0.00 in
16:58 45.5 °F 40.3 °F 29.92 in South 1.5 mph 3.5 mph 82 % 0.00 in
17:03 45.4 °F 40.5 °F 29.92 in SSW 2.3 mph 3.5 mph 83 % 0.00 in
17:08 45.3 °F 40.4 °F 29.91 in South 1.4 mph 3.5 mph 83 % 0.00 in
17:13 45.1 °F 40.2 °F 29.91 in South 1.8 mph 3.5 mph 83 % 0.00 in
17:19 44.9 °F 40.4 °F 29.90 in South 0.8 mph 2.3 mph 84 % 0.00 in
17:24 44.7 °F 40.2 °F 29.91 in SSW 1.6 mph 3.5 mph 84 % 0.00 in
17:29 44.4 °F 40.2 °F 29.91 in SSW 2.4 mph 5.0 mph 85 % 0.00 in
17:34 44.1 °F 39.9 °F 29.92 in SSW 2.5 mph 6.9 mph 85 % 0.00 in
17:39 44.0 °F 39.8 °F 29.92 in SSW 2.0 mph 3.5 mph 85 % 0.00 in
17:44 43.8 °F 39.6 °F 29.92 in WSW 4.1 mph 6.9 mph 85 % 0.00 in
17:49 43.7 °F 39.5 °F 29.93 in SW 3.0 mph 5.8 mph 85 % 0.00 in
17:54 43.6 °F 39.4 °F 29.92 in SSW 5.0 mph 6.9 mph 85 % 0.00 in
17:59 43.6 °F 39.4 °F 29.92 in SSW 2.4 mph 5.8 mph 85 % 0.00 in
18:04 43.5 °F 39.3 °F 29.92 in SW 2.4 mph 4.6 mph 85 % 0.00 in
18:10 43.5 °F 39.3 °F 29.93 in SW 5.2 mph 6.0 mph 85 % 0.00 in
18:15 43.5 °F 39.3 °F 29.93 in SW 3.5 mph 4.6 mph 85 % 0.00 in
18:20 43.5 °F 39.3 °F 29.93 in SSW 3.3 mph 5.8 mph 85 % 0.00 in
18:25 43.4 °F 39.2 °F 29.92 in SSW 2.0 mph 4.0 mph 85 % 0.00 in
18:30 43.4 °F 39.2 °F 29.92 in SW 1.8 mph 3.5 mph 85 % 0.00 in
18:35 43.4 °F 39.2 °F 29.92 in SW 2.5 mph 4.6 mph 85 % 0.00 in
18:40 43.3 °F 39.1 °F 29.92 in SW 2.9 mph 4.0 mph 85 % 0.00 in
18:45 43.2 °F 39.0 °F 29.92 in SW 2.6 mph 6.9 mph 85 % 0.00 in
18:50 43.2 °F 39.0 °F 29.93 in SSW 2.9 mph 4.6 mph 85 % 0.00 in
18:55 43.2 °F 38.7 °F 29.93 in SSW 5.6 mph 9.0 mph 84 % 0.00 in
19:01 43.2 °F 38.4 °F 29.93 in SSW 2.7 mph 4.6 mph 83 % 0.00 in
19:06 43.3 °F 38.5 °F 29.92 in SSW 3.6 mph 6.9 mph 83 % 0.00 in
19:11 43.3 °F 38.2 °F 29.92 in WSW 5.9 mph 10.4 mph 82 % 0.00 in
19:16 43.4 °F 38.0 °F 29.93 in SW 3.0 mph 6.0 mph 81 % 0.00 in
19:21 43.5 °F 37.7 °F 29.93 in SW 5.1 mph 10.4 mph 80 % 0.00 in
19:26 43.6 °F 37.8 °F 29.93 in South 3.7 mph 7.0 mph 80 % 0.00 in
19:31 43.6 °F 37.5 °F 29.93 in SSW 4.5 mph 6.9 mph 79 % 0.00 in
19:36 43.7 °F 37.6 °F 29.93 in WNW 3.9 mph 8.1 mph 79 % 0.00 in
19:41 43.9 °F 37.5 °F 29.93 in South 4.8 mph 9.2 mph 78 % 0.00 in
19:46 44.1 °F 37.3 °F 29.93 in SW 4.6 mph 7.0 mph 77 % 0.00 in
19:52 44.2 °F 37.4 °F 29.93 in WSW 3.3 mph 10.4 mph 77 % 0.00 in
19:57 44.3 °F 37.2 °F 29.93 in WSW 3.7 mph 10.0 mph 76 % 0.00 in
20:02 44.4 °F 37.0 °F 29.93 in WSW 7.2 mph 11.5 mph 75 % 0.00 in
20:07 44.6 °F 36.8 °F 29.93 in SSW 5.9 mph 11.5 mph 74 % 0.00 in
20:12 44.7 °F 36.9 °F 29.93 in WSW 4.4 mph 11.0 mph 74 % 0.00 in
20:17 44.8 °F 37.0 °F 29.93 in SW 6.1 mph 10.4 mph 74 % 0.00 in
20:22 44.8 °F 36.7 °F 29.94 in SW 4.1 mph 6.9 mph 73 % 0.00 in
20:32 44.8 °F 36.7 °F 29.93 in SSW 3.7 mph 6.9 mph 73 % 0.00 in
20:37 44.8 °F 36.7 °F 29.92 in SSW 4.0 mph 5.8 mph 73 % 0.00 in
20:43 44.8 °F 36.7 °F 29.92 in WSW 3.5 mph 6.9 mph 73 % 0.00 in
20:48 44.8 °F 36.7 °F 29.92 in West 6.9 mph 10.4 mph 73 % 0.00 in
20:53 44.9 °F 36.4 °F 29.92 in SSW 6.6 mph 10.4 mph 72 % 0.00 in
20:58 45.0 °F 36.5 °F 29.92 in SW 7.0 mph 11.5 mph 72 % 0.00 in
21:03 45.0 °F 36.5 °F 29.92 in SSW 5.7 mph 12.0 mph 72 % 0.00 in
21:08 45.1 °F 36.3 °F 29.92 in WSW 8.1 mph 15.0 mph 71 % 0.00 in
21:13 45.2 °F 36.7 °F 29.92 in SW 6.0 mph 8.1 mph 72 % 0.00 in
21:18 45.2 °F 36.7 °F 29.92 in SW 5.0 mph 6.9 mph 72 % 0.00 in
21:23 45.2 °F 36.4 °F 29.92 in SSW 5.7 mph 10.4 mph 71 % 0.00 in
21:28 45.3 °F 36.4 °F 29.91 in SSW 4.7 mph 11.5 mph 71 % 0.00 in
21:34 45.3 °F 36.8 °F 29.92 in SSW 4.8 mph 6.9 mph 72 % 0.00 in
21:39 45.3 °F 36.4 °F 29.91 in WSW 5.6 mph 9.2 mph 71 % 0.00 in
21:44 45.4 °F 36.9 °F 29.91 in SW 4.1 mph 6.9 mph 72 % 0.00 in
21:54 45.4 °F 36.9 °F 29.91 in SSW 3.3 mph 5.8 mph 72 % 0.00 in
21:59 45.3 °F 36.8 °F 29.91 in WSW 3.7 mph 5.8 mph 72 % 0.00 in
22:04 45.2 °F 36.7 °F 29.91 in SW 6.7 mph 11.5 mph 72 % 0.00 in
22:14 45.1 °F 36.6 °F 29.91 in SW 4.9 mph 8.1 mph 72 % 0.00 in
22:19 45.1 °F 36.6 °F 29.91 in SSW 6.9 mph 8.0 mph 72 % 0.00 in
22:25 45.0 °F 36.9 °F 29.91 in SSW 3.7 mph 7.0 mph 73 % 0.00 in
22:30 45.0 °F 36.9 °F 29.91 in SW 0.8 mph 4.0 mph 73 % 0.00 in
22:35 44.9 °F 36.8 °F 29.91 in WSW 2.9 mph 4.0 mph 73 % 0.00 in
22:40 44.8 °F 36.7 °F 29.91 in SW 3.2 mph 4.6 mph 73 % 0.00 in
22:45 44.7 °F 36.6 °F 29.91 in SW 2.9 mph 4.6 mph 73 % 0.00 in
22:50 44.7 °F 36.6 °F 29.91 in SW 4.4 mph 5.8 mph 73 % 0.00 in
22:55 44.6 °F 36.8 °F 29.91 in SW 3.5 mph 6.9 mph 74 % 0.00 in
23:00 44.5 °F 36.4 °F 29.91 in SW 4.3 mph 5.8 mph 73 % 0.00 in
23:05 44.4 °F 36.6 °F 29.92 in SW 3.5 mph 4.0 mph 74 % 0.00 in
23:10 44.3 °F 36.5 °F 29.92 in SW 3.5 mph 6.9 mph 74 % 0.00 in
23:16 44.2 °F 36.4 °F 29.92 in SW 2.6 mph 5.8 mph 74 % 0.00 in
23:21 44.2 °F 36.4 °F 29.92 in SW 3.6 mph 5.8 mph 74 % 0.00 in
23:26 44.2 °F 36.4 °F 29.92 in SSE 3.6 mph 9.2 mph 74 % 0.00 in
23:31 44.1 °F 36.3 °F 29.92 in West 3.5 mph 6.9 mph 74 % 0.00 in
23:36 44.1 °F 36.7 °F 29.92 in SSW 3.1 mph 4.6 mph 75 % 0.00 in
23:41 44.1 °F 36.7 °F 29.92 in SSW 2.4 mph 5.0 mph 75 % 0.00 in
23:46 44.1 °F 36.7 °F 29.92 in SSW 1.4 mph 3.5 mph 75 % 0.00 in
23:51 44.1 °F 36.7 °F 29.92 in WSW 2.1 mph 5.8 mph 75 % 0.00 in
23:56 44.1 °F 37.0 °F 29.92 in SW 1.7 mph 3.5 mph 76 % 0.00 in
Crab Meadow Weather
Compliments of Weather Underground - 2.75 mb

Script developed by  Jim McMurry - jmcmurry@mwt.net Adapted for the template by  Wim van der Kuil - Leuven-Template.eu

Recycling: Every ton of mixed paper recycled can save the energy equivalent of 185 gallons of gas.